Time;durP1;ratioP1;P1;durP2;ratioP2;P2;SDS_P1;SDS_P2;PMS_P1;PMS_P2;Temp;Humidity;BMP_temperature;BMP_pressure;BME280_temperature;BME280_humidity;BME280_pressure;Samples;Min_cycle;Max_cycle;Signal;HPM_P1;HPM_P2
2023/09/15 00:01:18;;;;;;;1.27;1.17;;;;;;;17.79;75.74;99979.47;5074236;28;20293;-68
2023/09/15 00:03:46;;;;;;;;;;;;;;;17.75;75.33;99972.69;5074070;28;20045;-68
2023/09/15 00:06:16;;;;;;;0.73;0.73;;;;;;;17.77;75.35;99974.34;5073916;28;19974;-68
2023/09/15 00:08:45;;;;;;;1.02;0.95;;;;;;;17.75;75.48;99975.28;5073899;28;20039;-67
2023/09/15 00:11:17;;;;;;;0.65;0.65;;;;;;;17.68;75.71;99976.31;5074140;28;20036;-67
2023/09/15 00:13:47;;;;;;;1.95;1.27;;;;;;;17.58;75.71;99980.00;5073465;28;20041;-67
2023/09/15 00:16:17;;;;;;;1.05;0.98;;;;;;;17.55;76.22;99974.91;5073831;28;20088;-67
2023/09/15 00:18:46;;;;;;;1.75;1.17;;;;;;;17.50;76.21;99987.03;5073782;28;20045;-67
2023/09/15 00:21:16;;;;;;;;;;;;;;;17.43;76.68;99991.50;5073648;28;20043;-67
2023/09/15 00:23:45;;;;;;;1.95;1.67;;;;;;;17.29;76.68;99984.09;5073391;28;19920;-67
2023/09/15 00:26:14;;;;;;;2.00;1.33;;;;;;;17.17;77.15;99979.22;5073360;28;20604;-67
2023/09/15 00:28:44;;;;;;;1.50;1.20;;;;;;;17.18;77.46;99978.31;5073382;28;20289;-67
2023/09/15 00:31:15;;;;;;;0.93;0.70;;;;;;;17.14;77.34;99983.59;5072493;28;20044;-68
2023/09/15 00:33:44;;;;;;;0.80;0.80;;;;;;;17.11;77.59;99983.63;5072237;28;20508;-67
2023/09/15 00:36:13;;;;;;;0.65;0.60;;;;;;;17.07;77.77;99980.31;5073202;28;20085;-67
2023/09/15 00:38:42;;;;;;;1.43;1.30;;;;;;;17.14;77.77;99983.59;5072150;28;20087;-67
2023/09/15 00:41:10;;;;;;;1.08;0.98;;;;;;;17.21;77.45;99986.00;5073834;28;20319;-67
2023/09/15 00:43:40;;;;;;;0.57;0.57;;;;;;;17.17;77.64;99984.38;5072048;28;20044;-68
2023/09/15 00:46:11;;;;;;;1.33;1.23;;;;;;;17.06;77.60;99991.47;5072388;28;20039;-67
2023/09/15 00:48:42;;;;;;;1.27;1.17;;;;;;;17.10;77.77;99987.97;5073298;28;20524;-68
2023/09/15 00:51:11;;;;;;;0.88;0.82;;;;;;;17.09;77.61;99982.84;5072312;28;20040;-67
2023/09/15 00:53:41;;;;;;;2.05;1.02;;;;;;;16.99;77.62;99981.38;5073097;28;20131;-67
2023/09/15 00:56:10;;;;;;;1.27;1.17;;;;;;;16.78;78.10;99990.38;5072161;28;20044;-67
2023/09/15 00:58:42;;;;;;;2.08;1.02;;;;;;;16.68;78.56;99994.03;5073095;28;20048;-67
2023/09/15 01:01:11;;;;;;;0.73;0.68;;;;;;;16.69;78.71;99986.28;5073359;28;20500;-67
2023/09/15 01:03:45;;;;;;;1.42;0.98;;;;;;;16.69;78.89;99993.16;5073013;28;20040;-67
2023/09/15 01:06:15;;;;;;;0.73;0.73;;;;;;;16.63;78.84;99986.38;5071791;28;20052;-68
2023/09/15 01:08:44;;;;;;;0.93;0.93;;;;;;;16.44;78.62;99989.31;5071817;28;20055;-67
2023/09/15 01:11:15;;;;;;;0.65;0.65;;;;;;;16.43;79.30;99992.81;5072898;28;20044;-67
2023/09/15 01:13:44;;;;;;;0.88;0.88;;;;;;;16.35;79.18;99990.38;5072877;28;20044;-68
2023/09/15 01:16:19;;;;;;;1.10;1.00;;;;;;;16.17;79.53;99989.88;5073406;28;20189;-67
2023/09/15 01:18:59;;;;;;;0.85;0.82;;;;;;;16.08;79.83;99996.88;5072886;28;20068;-67
2023/09/15 01:21:59;;;;;;;1.33;0.70;;;;;;;16.16;80.39;99988.16;5072006;28;20123;-67
2023/09/15 01:24:53;;;;;;;0.80;0.80;;;;;;;16.17;80.46;99995.03;5073086;28;20388;-67
2023/09/15 01:27:47;;;;;;;1.45;1.30;;;;;;;16.14;80.40;100000.22;5071534;28;20052;-68
2023/09/15 01:30:20;;;;;;;1.73;1.02;;;;;;;16.02;80.23;99999.56;5071519;28;20060;-67
2023/09/15 01:32:50;;;;;;;0.80;0.80;;;;;;;15.98;80.52;100003.06;5073256;28;20044;-67
2023/09/15 01:35:19;;;;;;;1.02;0.80;;;;;;;15.99;80.71;100004.78;5076655;28;20048;-68
2023/09/15 01:37:48;;;;;;;3.38;0.98;;;;;;;15.99;80.98;99998.75;5076170;28;20040;-67
2023/09/15 01:40:17;;;;;;;2.67;1.67;;;;;;;15.98;80.83;100004.81;5076746;28;20052;-67
2023/09/15 01:42:51;;;;;;;2.35;1.40;;;;;;;16.03;80.70;100006.41;5076493;28;20518;-68
2023/09/15 01:45:22;;;;;;;1.60;0.80;;;;;;;15.96;80.92;100002.25;5076477;28;20496;-67
2023/09/15 01:47:52;;;;;;;0.88;0.88;;;;;;;15.92;80.50;100000.59;5074901;28;20045;-67
2023/09/15 01:50:22;;;;;;;2.67;1.95;;;;;;;15.86;80.76;100010.16;5075182;28;20048;-68
2023/09/15 01:52:52;;;;;;;0.65;0.65;;;;;;;15.78;80.74;100012.00;5076236;28;20049;-67
2023/09/15 01:55:22;;;;;;;0.85;0.82;;;;;;;15.81;81.26;100011.97;5074952;28;20052;-68
2023/09/15 01:57:52;;;;;;;5.38;2.00;;;;;;;15.72;81.31;100007.78;5075900;28;20048;-67
2023/09/15 02:00:22;;;;;;;1.02;0.95;;;;;;;15.66;81.26;100013.06;5074696;28;20044;-67
2023/09/15 02:02:51;;;;;;;1.40;1.30;;;;;;;15.61;81.21;100014.84;5075878;28;20048;-68
2023/09/15 02:05:24;;;;;;;0.50;0.50;;;;;;;15.56;81.95;100011.50;5075790;28;20053;-68
2023/09/15 02:07:54;;;;;;;0.90;0.88;;;;;;;15.62;81.69;100011.38;5076116;28;20136;-67
2023/09/15 02:10:23;;;;;;;3.85;1.33;;;;;;;15.64;81.47;100007.09;5075601;28;20041;-67
2023/09/15 02:12:52;;;;;;;1.07;0.90;;;;;;;15.59;82.11;100008.88;5074881;28;20123;-67
2023/09/15 02:15:22;;;;;;;1.17;1.08;;;;;;;15.57;82.13;100002.91;5075580;28;20045;-67
2023/09/15 02:17:52;;;;;;;0.85;0.85;;;;;;;15.58;81.82;100007.16;5075647;28;20128;-68
2023/09/15 02:20:22;;;;;;;0.80;0.80;;;;;;;15.56;82.38;100001.22;5075446;28;20132;-67
2023/09/15 02:22:51;;;;;;;0.70;0.70;;;;;;;15.53;82.00;100006.38;5075981;28;20048;-67
2023/09/15 02:25:20;;;;;;;0.70;0.70;;;;;;;15.45;82.34;100008.25;5075736;28;20036;-68
2023/09/15 02:27:49;;;;;;;0.77;0.77;;;;;;;15.40;82.13;100003.13;5075375;28;20289;-67
2023/09/15 02:30:18;;;;;;;0.88;0.88;;;;;;;15.33;82.28;100008.41;5075556;28;20456;-67
2023/09/15 02:32:48;;;;;;;1.13;0.93;;;;;;;15.26;82.65;100017.06;5075227;28;20123;-67
2023/09/15 02:35:17;;;;;;;1.15;0.90;;;;;;;15.37;83.24;100005.75;5075244;28;20364;-67
2023/09/15 02:37:47;;;;;;;2.78;1.73;;;;;;;15.41;82.97;100002.25;5055235;28;20496;-67
2023/09/15 02:40:16;;;;;;;1.20;1.10;;;;;;;15.38;82.57;100001.44;5055024;28;20037;-67
2023/09/15 02:42:45;;;;;;;0.93;0.90;;;;;;;15.39;82.59;100006.59;5053989;28;20045;-68
2023/09/15 02:45:14;;;;;;;0.77;0.77;;;;;;;15.40;82.43;99994.56;5054978;28;20099;-67
2023/09/15 02:47:43;;;;;;;0.65;0.63;;;;;;;15.35;82.29;99996.38;5053833;28;20136;-67
2023/09/15 02:50:14;;;;;;;1.03;1.00;;;;;;;15.36;82.81;100000.63;5054025;28;20082;-67
2023/09/15 02:52:43;;;;;;;0.70;0.70;;;;;;;15.36;82.86;99995.47;5053699;28;20282;-67
2023/09/15 02:55:12;;;;;;;0.63;0.63;;;;;;;15.40;83.15;100010.00;5053612;28;20037;-68
2023/09/15 02:57:41;;;;;;;0.70;0.70;;;;;;;15.36;82.68;100003.19;5053674;28;20045;-66
2023/09/15 03:00:13;;;;;;;1.40;1.17;;;;;;;15.37;82.62;100002.34;5053506;28;20132;-68
2023/09/15 03:02:44;;;;;;;0.77;0.77;;;;;;;15.26;82.62;100006.78;5054758;28;20390;-68
2023/09/15 03:05:16;;;;;;;0.70;0.70;;;;;;;15.24;82.53;100011.09;5087334;28;20075;-68
2023/09/15 03:07:45;;;;;;;2.08;1.88;;;;;;;15.28;82.88;99999.91;5054572;28;20056;-67
2023/09/15 03:10:16;;;;;;;0.63;0.63;;;;;;;15.35;82.71;100006.66;5054575;28;20045;-67
2023/09/15 03:12:45;;;;;;;;;;;;;;;15.43;82.67;100009.94;5053660;28;20141;-67
2023/09/15 03:15:14;;;;;;;0.82;0.77;;;;;;;15.36;82.29;100005.75;5053292;28;20410;-67
2023/09/15 03:17:43;;;;;;;1.30;1.13;;;;;;;15.27;82.65;100013.63;5054992;28;20118;-68
2023/09/15 03:20:15;;;;;;;1.23;1.13;;;;;;;15.24;82.59;100005.94;5054425;28;20049;-67
2023/09/15 03:22:47;;;;;;;0.60;0.60;;;;;;;15.22;82.76;100010.25;5053171;28;20056;-67
2023/09/15 03:25:16;;;;;;;2.05;0.98;;;;;;;15.21;82.68;100008.56;5053098;28;20056;-68
2023/09/15 03:27:45;;;;;;;1.33;1.20;;;;;;;15.17;82.75;100001.75;5054281;28;20423;-67
2023/09/15 03:30:14;;;;;;;0.80;0.80;;;;;;;15.17;82.70;100001.75;5054806;28;20040;-67
2023/09/15 03:32:45;;;;;;;0.50;0.50;;;;;;;15.16;82.73;99995.78;5054005;28;20123;-67
2023/09/15 03:35:14;;;;;;;1.45;1.33;;;;;;;15.33;82.71;100000.69;5054091;28;20041;-67
2023/09/15 03:37:43;;;;;;;0.70;0.70;;;;;;;15.32;82.75;99996.41;5073497;28;20540;-68
2023/09/15 03:40:14;;;;;;;0.73;0.73;;;;;;;15.24;82.52;99995.66;5072827;28;20045;-67
2023/09/15 03:42:43;;;;;;;0.57;0.55;;;;;;;15.16;82.79;99994.94;5073067;28;20068;-67
2023/09/15 03:45:12;;;;;;;0.73;0.65;;;;;;;15.14;82.94;99996.69;5074147;28;20052;-67
2023/09/15 03:47:41;;;;;;;1.00;0.90;;;;;;;15.23;82.98;99991.41;5072613;28;20041;-67
2023/09/15 03:50:11;;;;;;;1.23;0.97;;;;;;;15.23;82.73;100002.53;5073783;28;20511;-67
2023/09/15 03:52:40;;;;;;;0.73;0.73;;;;;;;15.16;82.85;100000.06;5073695;28;20411;-67
2023/09/15 03:55:08;;;;;;;2.35;1.45;;;;;;;15.09;82.49;100007.00;5073670;28;20123;-67
2023/09/15 03:57:39;;;;;;;0.88;0.88;;;;;;;15.11;82.65;100007.00;5072387;28;20033;-67
2023/09/15 04:00:17;;;;;;;1.13;1.02;;;;;;;15.18;82.44;100003.47;5074046;28;20147;-67
2023/09/15 04:02:46;;;;;;;1.65;1.55;;;;;;;15.23;82.79;100006.84;5073925;28;20063;-67
2023/09/15 04:05:15;;;;;;;1.03;0.90;;;;;;;15.29;82.16;100011.88;5073928;28;20373;-68
2023/09/15 04:07:44;;;;;;;1.38;1.25;;;;;;;15.26;82.42;100006.78;5072418;28;20274;-67
2023/09/15 04:10:13;;;;;;;1.45;1.35;;;;;;;15.26;82.04;100022.22;5073866;28;20048;-68
2023/09/15 04:12:44;;;;;;;1.92;1.42;;;;;;;15.25;82.26;100016.22;5073363;28;20072;-67
2023/09/15 04:15:13;;;;;;;1.35;0.98;;;;;;;15.25;82.26;100015.38;5073842;28;20059;-67
2023/09/15 04:17:42;;;;;;;1.20;1.10;;;;;;;15.22;82.45;100025.69;5072361;28;20053;-67
2023/09/15 04:20:11;;;;;;;0.73;0.73;;;;;;;15.19;82.52;100021.44;5072267;28;20036;-67
2023/09/15 04:22:40;;;;;;;;;;;;;;;15.23;82.47;100023.13;5072625;28;20033;-67
2023/09/15 04:25:11;;;;;;;0.65;0.65;;;;;;;15.29;82.47;100027.28;5106032;28;19924;-67
2023/09/15 04:27:41;;;;;;;0.80;0.80;;;;;;;15.23;82.12;100033.41;5072592;28;20166;-67
2023/09/15 04:30:12;;;;;;;0.50;0.50;;;;;;;15.25;82.24;100030.78;5073348;28;20048;-67
2023/09/15 04:32:46;;;;;;;0.82;0.80;;;;;;;15.28;81.81;100028.19;5073333;28;20060;-67
2023/09/15 04:35:16;;;;;;;0.55;0.55;;;;;;;15.27;81.38;100029.91;5072023;28;20051;-67
2023/09/15 04:37:45;;;;;;;1.08;0.90;;;;;;;15.23;81.97;100032.53;5071914;28;20477;-67
2023/09/15 04:40:14;;;;;;;0.70;0.70;;;;;;;15.26;81.33;100037.66;5072057;28;20048;-67
2023/09/15 04:42:45;;;;;;;1.43;1.33;;;;;;;15.18;81.52;100034.31;5072046;28;20125;-67
2023/09/15 04:45:16;;;;;;;1.15;1.00;;;;;;;15.15;81.71;100035.22;5071967;28;20301;-67
2023/09/15 04:47:46;;;;;;;1.05;0.85;;;;;;;15.12;82.16;100042.97;5072108;28;20048;-67
2023/09/15 04:50:21;;;;;;;0.65;0.65;;;;;;;15.15;82.32;100039.50;5072068;28;20500;-67
2023/09/15 04:52:52;;;;;;;1.85;1.35;;;;;;;15.12;82.59;100036.97;5073418;28;20056;-67
2023/09/15 04:55:20;;;;;;;;;;;;;;;15.18;82.65;100036.91;5072460;28;20098;-67
2023/09/15 04:57:51;;;;;;;;;;;;;;;15.26;82.23;100032.50;5073540;28;20347;-67
2023/09/15 05:00:24;;;;;;;0.88;0.88;;;;;;;15.34;82.27;100031.50;5073052;28;19926;-67
2023/09/15 05:02:57;;;;;;;0.82;0.82;;;;;;;15.38;82.14;100040.03;5071887;28;20048;-68
2023/09/15 05:05:30;;;;;;;1.65;0.90;;;;;;;15.38;82.16;100037.44;5073471;28;20393;-67
2023/09/15 05:08:00;;;;;;;0.88;0.85;;;;;;;15.38;82.65;100037.44;5073949;28;20063;-67
2023/09/15 05:10:30;;;;;;;0.60;0.60;;;;;;;15.47;82.16;100037.38;5076798;28;20049;-68
2023/09/15 05:13:05;;;;;;;1.35;1.25;;;;;;;15.53;82.06;100039.84;5076772;28;20052;-68
2023/09/15 05:15:38;;;;;;;0.63;0.63;;;;;;;15.53;81.76;100037.25;5076670;28;20044;-67
2023/09/15 05:18:08;;;;;;;2.65;1.08;;;;;;;15.60;81.90;100031.16;5075584;28;20083;-67
2023/09/15 05:20:37;;;;;;;2.40;1.55;;;;;;;15.66;81.90;100032.78;5076597;28;20043;-67
2023/09/15 05:23:06;;;;;;;2.20;1.33;;;;;;;15.76;82.10;100042.94;5075684;28;20064;-67
2023/09/15 05:25:35;;;;;;;1.27;0.98;;;;;;;15.83;81.68;100036.81;5076419;28;20311;-67
2023/09/15 05:28:05;;;;;;;1.15;0.90;;;;;;;15.90;81.93;100037.53;5075305;28;20113;-68
2023/09/15 05:30:34;;;;;;;1.55;1.35;;;;;;;15.98;81.85;100035.69;5075534;28;20060;-67
2023/09/15 05:33:08;;;;;;;1.40;1.30;;;;;;;16.07;81.54;100036.41;5075474;28;20087;-68
2023/09/15 05:35:38;;;;;;;0.85;0.85;;;;;;;16.13;81.14;100032.84;5076288;28;20101;-67
2023/09/15 05:38:07;;;;;;;1.30;1.17;;;;;;;16.19;80.94;100035.31;5076437;28;20048;-68
2023/09/15 05:40:36;;;;;;;0.73;0.73;;;;;;;16.30;81.14;100032.53;5076356;28;20044;-67
2023/09/15 05:43:08;;;;;;;1.40;1.30;;;;;;;16.45;80.92;100037.41;5076240;28;20073;-68
2023/09/15 05:45:40;;;;;;;2.08;1.48;;;;;;;16.58;80.99;100038.94;5076465;28;20040;-67
2023/09/15 05:48:13;;;;;;;1.17;1.07;;;;;;;16.66;80.65;100037.03;5076201;28;20090;-67
2023/09/15 05:50:42;;;;;;;0.45;0.45;;;;;;;16.71;80.47;100035.22;5076509;28;20071;-68
2023/09/15 05:53:11;;;;;;;0.70;0.70;;;;;;;16.75;80.48;100036.84;5076185;28;20483;-68
2023/09/15 05:55:40;;;;;;;1.15;0.95;;;;;;;16.83;80.29;100037.56;5075861;28;20117;-68
2023/09/15 05:58:09;;;;;;;1.30;1.15;;;;;;;16.90;80.07;100039.13;5075904;28;20123;-68
2023/09/15 06:00:38;;;;;;;0.98;0.95;;;;;;;16.96;79.95;100049.31;5075939;28;20072;-67
2023/09/15 06:03:07;;;;;;;1.05;0.95;;;;;;;17.04;79.46;100041.41;5075869;28;20041;-68
2023/09/15 06:05:39;;;;;;;1.17;1.08;;;;;;;17.11;79.38;100046.41;5074237;28;20041;-69
2023/09/15 06:08:08;;;;;;;0.50;0.50;;;;;;;17.20;79.30;100050.53;5075413;28;20044;-67
2023/09/15 06:10:39;;;;;;;0.70;0.70;;;;;;;17.27;78.83;100052.94;5075672;28;20135;-67
2023/09/15 06:13:09;;;;;;;3.25;0.95;;;;;;;17.35;78.70;100050.16;5075794;28;20044;-67
2023/09/15 06:15:37;;;;;;;2.03;1.33;;;;;;;17.41;78.40;100050.91;5075510;28;20094;-67
2023/09/15 06:18:06;;;;;;;1.30;1.20;;;;;;;17.51;77.99;100046.38;5075527;28;20507;-66
2023/09/15 06:20:35;;;;;;;0.77;0.77;;;;;;;17.60;77.60;100041.03;5075119;28;20044;-67
2023/09/15 06:23:06;;;;;;;0.63;0.63;;;;;;;17.75;77.35;100045.00;5075872;28;20045;-66
2023/09/15 06:25:35;;;;;;;1.45;1.33;;;;;;;17.90;76.95;100039.47;5075707;28;20060;-66
2023/09/15 06:28:04;;;;;;;1.27;0.77;;;;;;;18.03;76.22;100040.84;5075334;28;20044;-66
2023/09/15 06:30:48;;;;;;;0.75;0.75;;;;;;;18.05;75.37;100039.91;5075639;28;20049;-66
2023/09/15 06:33:17;;;;;;;0.82;0.77;;;;;;;18.09;75.10;100040.69;5075324;28;20044;-67
2023/09/15 06:35:49;;;;;;;0.70;0.70;;;;;;;18.16;74.51;100042.25;5075062;28;20118;-67
2023/09/15 06:38:20;;;;;;;0.80;0.60;;;;;;;18.20;74.04;100035.25;5075266;28;20044;-66
2023/09/15 06:40:49;;;;;;;1.10;1.00;;;;;;;18.34;73.89;100036.56;5075196;28;20044;-66
2023/09/15 06:43:17;;;;;;;1.20;1.10;;;;;;;18.53;73.66;100037.81;5075354;28;20411;-66
2023/09/15 06:45:46;;;;;;;0.75;0.75;;;;;;;18.64;73.21;100040.94;5075782;28;20495;-66
2023/09/15 06:48:15;;;;;;;2.20;1.10;;;;;;;18.79;72.98;100038.84;5074979;28;20044;-67
2023/09/15 06:50:45;;;;;;;1.67;1.42;;;;;;;18.85;72.43;100033.47;5074913;28;20040;-67
2023/09/15 06:53:14;;;;;;;1.10;0.93;;;;;;;18.85;71.99;100044.69;5074940;28;20055;-66
2023/09/15 06:55:44;;;;;;;0.80;0.80;;;;;;;18.83;72.01;100045.59;5074992;28;20068;-66
2023/09/15 06:58:13;;;;;;;0.90;0.90;;;;;;;18.93;71.98;100049.63;5074790;28;20040;-67
2023/09/15 07:00:43;;;;;;;0.50;0.50;;;;;;;19.03;71.87;100045.88;5074662;28;20060;-66
2023/09/15 07:03:12;;;;;;;0.73;0.73;;;;;;;19.16;71.60;100042.88;5074691;28;20139;-67
2023/09/15 07:05:43;;;;;;;0.50;0.50;;;;;;;19.24;71.22;100040.06;5074705;28;20055;-66
2023/09/15 07:08:11;;;;;;;1.52;1.42;;;;;;;19.33;70.59;100042.38;5074820;28;20573;-66
2023/09/15 07:10:40;;;;;;;0.57;0.57;;;;;;;19.38;70.43;100040.53;5074477;28;20036;-66
2023/09/15 07:13:11;;;;;;;2.75;1.15;;;;;;;19.42;70.22;100036.94;5074896;28;20084;-66
2023/09/15 07:15:39;;;;;;;1.20;1.10;;;;;;;19.45;70.08;100049.81;5074476;28;20461;-66
2023/09/15 07:18:08;;;;;;;0.50;0.50;;;;;;;19.56;69.83;100039.09;5073547;28;20044;-66
2023/09/15 07:20:37;;;;;;;1.58;1.33;;;;;;;19.59;69.54;100041.59;5074547;28;20323;-66
2023/09/15 07:23:06;;;;;;;0.65;0.65;;;;;;;19.65;69.46;100034.47;5074378;28;20536;-66
2023/09/15 07:25:35;;;;;;;0.93;0.93;;;;;;;19.80;69.36;100039.16;5074915;28;20044;-66
2023/09/15 07:28:05;;;;;;;3.20;1.95;;;;;;;19.96;69.39;100040.34;5074487;28;20098;-66
2023/09/15 07:30:36;;;;;;;1.75;0.57;;;;;;;20.08;68.29;100033.09;5073318;28;20051;-66
2023/09/15 07:33:05;;;;;;;1.27;1.13;;;;;;;20.12;67.91;100043.28;5074453;28;20053;-66
2023/09/15 07:35:35;;;;;;;0.57;0.57;;;;;;;20.18;67.56;100039.66;5073743;28;20052;-66
2023/09/15 07:38:05;;;;;;;0.60;0.60;;;;;;;20.20;67.20;100049.06;5074026;28;20049;-66
2023/09/15 07:40:34;;;;;;;4.18;1.08;;;;;;;20.23;66.82;100041.19;5074300;28;20044;-66
2023/09/15 07:43:04;;;;;;;2.08;1.27;;;;;;;20.27;66.34;100044.56;5074382;28;20131;-66
2023/09/15 07:45:33;;;;;;;0.60;0.60;;;;;;;20.37;66.04;100051.94;5073748;28;20060;-66
2023/09/15 07:48:03;;;;;;;0.67;0.67;;;;;;;20.43;65.68;100050.91;5073803;28;20048;-66
2023/09/15 07:50:33;;;;;;;0.47;0.47;;;;;;;20.49;65.69;100045.50;5074405;28;20277;-66
2023/09/15 07:53:02;;;;;;;0.70;0.70;;;;;;;20.56;65.17;100047.81;5073803;28;20453;-66
2023/09/15 07:55:31;;;;;;;1.15;0.95;;;;;;;20.64;65.07;100052.72;5073619;28;20045;-67
2023/09/15 07:58:00;;;;;;;0.70;0.70;;;;;;;20.68;64.79;100054.31;5073749;28;20047;-67
2023/09/15 08:00:29;;;;;;;3.40;1.30;;;;;;;20.81;64.42;100058.16;5073804;28;20123;-66
2023/09/15 08:02:58;;;;;;;0.60;0.60;;;;;;;20.88;64.23;100054.44;5073894;28;20075;-66
2023/09/15 08:05:29;;;;;;;0.93;0.82;;;;;;;20.99;64.38;100057.50;5073816;28;20138;-67
2023/09/15 08:07:58;;;;;;;2.40;0.65;;;;;;;21.11;63.86;100056.22;5074466;28;20085;-66
2023/09/15 08:10:28;;;;;;;1.67;1.10;;;;;;;21.13;63.35;100050.06;5073621;28;20119;-67
2023/09/15 08:12:57;;;;;;;0.57;0.57;;;;;;;21.11;63.01;100054.47;5073550;28;20277;-66
2023/09/15 08:15:26;;;;;;;0.57;0.57;;;;;;;21.18;63.00;100053.34;5073762;28;20110;-67
2023/09/15 08:17:55;;;;;;;0.30;0.30;;;;;;;21.28;62.90;100048.66;5073534;28;20119;-66
2023/09/15 08:20:26;;;;;;;0.68;0.68;;;;;;;21.25;62.79;100049.59;5073470;28;20048;-66
2023/09/15 08:22:57;;;;;;;;;;;;;;;21.38;62.76;100043.94;5073780;28;20059;-67
2023/09/15 08:25:27;;;;;;;0.70;0.70;;;;;;;21.54;62.36;100035.47;5073478;28;19920;-67
2023/09/15 08:27:56;;;;;;;0.60;0.60;;;;;;;21.63;62.10;100039.44;5073905;28;20040;-66
2023/09/15 08:30:25;;;;;;;0.50;0.50;;;;;;;21.66;62.02;100039.34;5073580;28;20044;-67
2023/09/15 08:32:53;;;;;;;0.60;0.60;;;;;;;21.82;62.10;100028.25;5073299;28;20051;-67
2023/09/15 08:35:22;;;;;;;0.40;0.40;;;;;;;21.94;61.77;100027.78;5073205;28;20051;-68
2023/09/15 08:37:51;;;;;;;0.52;0.52;;;;;;;21.99;60.91;100022.38;5073587;28;20127;-66
2023/09/15 08:40:21;;;;;;;1.65;1.25;;;;;;;22.13;60.85;100024.41;5073276;28;20044;-67
2023/09/15 08:42:50;;;;;;;0.65;0.65;;;;;;;22.14;60.07;100026.97;5075641;28;20041;-67
2023/09/15 08:45:20;;;;;;;0.75;0.75;;;;;;;22.20;59.84;100025.84;5077457;28;20511;-67
2023/09/15 08:47:55;;;;;;;0.82;0.82;;;;;;;22.37;60.18;100021.59;5077595;28;20044;-67
2023/09/15 08:50:24;;;;;;;0.77;0.77;;;;;;;22.48;60.08;100018.56;5077286;28;20053;-68
2023/09/15 08:52:54;;;;;;;0.63;0.60;;;;;;;22.45;59.59;100016.06;5077378;28;20121;-68
2023/09/15 08:55:25;;;;;;;0.50;0.50;;;;;;;22.47;59.40;100015.09;5077382;28;20048;-68
2023/09/15 08:57:55;;;;;;;0.75;0.70;;;;;;;22.59;59.85;100009.34;5077190;28;20083;-68
2023/09/15 09:00:24;;;;;;;0.70;0.70;;;;;;;22.67;59.64;100011.66;5077002;28;20102;-68
2023/09/15 09:02:53;;;;;;;;;;;;;;;22.73;59.39;100015.72;5077445;28;20037;-68
2023/09/15 09:05:24;;;;;;;0.85;0.85;;;;;;;22.83;59.23;100020.44;5077359;28;20375;-68
2023/09/15 09:07:56;;;;;;;0.50;0.50;;;;;;;22.84;58.55;100016.94;5076961;28;20059;-68
2023/09/15 09:10:26;;;;;;;0.57;0.57;;;;;;;22.89;58.51;100014.94;5077128;28;20044;-68
2023/09/15 09:12:56;;;;;;;0.47;0.47;;;;;;;22.90;58.12;100013.19;5076869;28;20110;-68
2023/09/15 09:15:28;;;;;;;1.00;0.95;;;;;;;23.00;58.26;100014.47;5076664;28;20044;-68
2023/09/15 09:17:57;;;;;;;0.68;0.68;;;;;;;23.03;57.96;100014.34;5076966;28;20446;-68
2023/09/15 09:20:28;;;;;;;0.40;0.40;;;;;;;23.10;57.67;100015.75;5075742;28;20091;-68
2023/09/15 09:22:57;;;;;;;0.60;0.60;;;;;;;23.27;57.67;100014.00;5077161;28;20434;-68
2023/09/15 09:25:28;;;;;;;0.60;0.60;;;;;;;23.43;57.29;100019.38;5076562;28;20041;-68
2023/09/15 09:27:57;;;;;;;1.52;0.60;;;;;;;23.55;56.82;100026.63;5076893;28;20442;-67
2023/09/15 09:30:29;;;;;;;0.60;0.60;;;;;;;23.55;56.74;100018.81;5076744;28;20040;-68
2023/09/15 09:32:58;;;;;;;0.50;0.50;;;;;;;23.56;56.57;100014.44;5076770;28;20503;-68
2023/09/15 09:35:28;;;;;;;0.95;0.80;;;;;;;23.64;56.54;100023.56;5076590;28;20045;-69
2023/09/15 09:37:57;;;;;;;;;;;;;;;23.82;56.73;100014.84;5076719;28;20041;-68
2023/09/15 09:40:27;;;;;;;0.45;0.45;;;;;;;23.95;56.81;100018.53;5076252;28;19921;-68
2023/09/15 09:42:56;;;;;;;0.80;0.80;;;;;;;23.89;56.22;100018.84;5076281;28;20067;-68
2023/09/15 09:45:30;;;;;;;0.57;0.57;;;;;;;24.00;56.30;100021.75;5076332;28;20115;-67
2023/09/15 09:48:01;;;;;;;0.60;0.60;;;;;;;24.17;56.29;100022.69;5076065;28;20059;-67
2023/09/15 09:50:30;;;;;;;0.60;0.60;;;;;;;24.15;55.82;100025.38;5076145;28;20067;-68
2023/09/15 09:52:59;;;;;;;0.60;0.60;;;;;;;24.22;55.50;100020.69;5076368;28;20029;-67
2023/09/15 09:55:29;;;;;;;0.40;0.40;;;;;;;24.33;55.50;100021.00;5076007;28;20426;-68
2023/09/15 09:58:05;;;;;;;0.60;0.60;;;;;;;24.31;55.61;100022.81;5075929;28;20033;-67
2023/09/15 10:00:35;;;;;;;0.43;0.43;;;;;;;24.47;55.85;100027.19;5076212;28;20048;-68
2023/09/15 10:03:04;;;;;;;0.90;0.80;;;;;;;24.31;54.99;100025.44;5075947;28;20202;-69
2023/09/15 10:05:36;;;;;;;0.50;0.50;;;;;;;24.37;55.78;100025.13;5076074;28;20461;-68
2023/09/15 10:08:05;;;;;;;1.08;0.95;;;;;;;24.40;55.56;100017.16;5075874;28;20044;-68
2023/09/15 10:10:41;;;;;;;0.85;0.80;;;;;;;24.53;55.89;100015.56;5075572;28;20037;-68
2023/09/15 10:13:09;;;;;;;1.05;0.95;;;;;;;24.66;55.44;100019.25;5075944;28;20048;-68
2023/09/15 10:15:42;;;;;;;0.70;0.70;;;;;;;24.69;55.51;100020.84;5075575;28;20051;-68
2023/09/15 10:18:14;;;;;;;0.95;0.85;;;;;;;24.69;55.79;100024.28;5075807;28;20558;-68
2023/09/15 10:20:45;;;;;;;1.10;1.02;;;;;;;24.62;55.60;100020.31;5075632;28;20048;-69
2023/09/15 10:23:14;;;;;;;0.40;0.40;;;;;;;24.75;55.62;100016.13;5075559;28;20048;-69
2023/09/15 10:25:48;;;;;;;1.02;0.93;;;;;;;25.00;56.27;100019.13;5075566;28;20040;-68
2023/09/15 10:28:18;;;;;;;0.70;0.70;;;;;;;25.06;55.85;100021.41;5075403;28;20063;-69
2023/09/15 10:31:07;;;;;;;0.50;0.50;;;;;;;25.02;55.99;100014.69;5075325;28;20091;-68
2023/09/15 10:33:41;;;;;;;1.30;1.02;;;;;;;25.16;55.06;100012.16;5075426;28;20401;-68
2023/09/15 10:36:13;;;;;;;1.15;1.05;;;;;;;25.14;54.95;100018.41;5074887;28;20060;-69
2023/09/15 10:38:45;;;;;;;0.75;0.75;;;;;;;25.24;54.72;100009.13;5075344;28;20060;-69
2023/09/15 10:41:27;;;;;;;0.60;0.55;;;;;;;25.05;54.67;100009.28;5075223;28;20056;-68
2023/09/15 10:43:56;;;;;;;0.40;0.40;;;;;;;25.10;54.30;100004.63;5074992;28;20049;-69
2023/09/15 10:46:36;;;;;;;0.50;0.50;;;;;;;25.17;53.77;99998.16;5073844;28;20048;-68
2023/09/15 10:49:17;;;;;;;0.68;0.68;;;;;;;25.38;54.03;99996.13;5074967;28;20136;-69
2023/09/15 10:51:54;;;;;;;0.70;0.70;;;;;;;25.58;53.92;100003.69;5074896;28;20048;-69
2023/09/15 10:54:26;;;;;;;0.85;0.80;;;;;;;25.67;53.56;100000.56;5074969;28;20060;-69
2023/09/15 10:56:57;;;;;;;0.60;0.60;;;;;;;25.81;53.72;99999.78;5075101;28;20561;-68
2023/09/15 10:59:26;;;;;;;0.75;0.73;;;;;;;25.95;53.09;100005.88;5074864;28;20055;-68
2023/09/15 11:01:55;;;;;;;;;;;;;;;26.04;52.02;100001.88;5075644;28;20192;-68
2023/09/15 11:04:25;;;;;;;0.63;0.63;;;;;;;26.09;51.56;100002.44;5074998;28;20368;-68
2023/09/15 11:06:54;;;;;;;0.55;0.55;;;;;;;26.12;51.14;99994.47;5074165;28;20036;-68
2023/09/15 11:09:25;;;;;;;0.50;0.50;;;;;;;26.20;50.83;99992.19;5074607;28;20040;-69
2023/09/15 11:11:54;;;;;;;0.50;0.50;;;;;;;26.11;50.73;99998.00;5074531;28;20083;-68
2023/09/15 11:14:25;;;;;;;0.52;0.52;;;;;;;25.91;51.04;99995.69;5074520;28;20033;-68
2023/09/15 11:16:56;;;;;;;0.63;0.63;;;;;;;25.55;51.36;99990.81;5074413;28;20131;-68
2023/09/15 11:19:30;;;;;;;0.40;0.40;;;;;;;25.36;52.18;99992.75;5074729;28;20079;-67
2023/09/15 11:22:03;;;;;;;0.60;0.60;;;;;;;25.21;52.56;99994.47;5074805;28;20098;-68
2023/09/15 11:24:33;;;;;;;0.52;0.52;;;;;;;25.30;52.31;99987.84;5074483;28;20045;-68
2023/09/15 11:27:03;;;;;;;0.75;0.68;;;;;;;25.22;52.14;99990.91;5074893;28;20391;-68
2023/09/15 11:29:34;;;;;;;0.50;0.50;;;;;;;25.18;51.77;99983.31;5074469;28;20048;-68
2023/09/15 11:32:03;;;;;;;1.00;0.90;;;;;;;25.19;52.32;99983.22;5074932;28;20044;-68
2023/09/15 11:34:33;;;;;;;1.13;1.02;;;;;;;25.31;52.90;99979.91;5074093;28;20048;-68
2023/09/15 11:37:02;;;;;;;0.50;0.50;;;;;;;25.26;52.30;99981.13;5073766;28;20507;-68
2023/09/15 11:39:31;;;;;;;0.68;0.68;;;;;;;25.47;51.85;99979.09;5074608;28;20045;-70
2023/09/15 11:42:01;;;;;;;1.60;1.25;;;;;;;25.60;51.63;99974.88;5074013;28;20037;-67
2023/09/15 11:44:31;;;;;;;0.60;0.60;;;;;;;25.75;51.54;99971.34;5073965;28;20523;-67